sensor_id;sensor_type;location;lat;lon;timestamp;temperature;humidity
33881;DHT22;20172;47.530;10.256;2024-01-16T00:00:01;1.20;99.90
33881;DHT22;20172;47.530;10.256;2024-01-16T00:02:26;1.20;99.90
33881;DHT22;20172;47.530;10.256;2024-01-16T00:04:52;1.20;99.90
33881;DHT22;20172;47.530;10.256;2024-01-16T00:07:17;1.30;99.90
33881;DHT22;20172;47.530;10.256;2024-01-16T00:09:43;1.40;99.90
33881;DHT22;20172;47.530;10.256;2024-01-16T00:12:09;1.40;99.90
33881;DHT22;20172;47.530;10.256;2024-01-16T00:14:35;1.50;99.90
33881;DHT22;20172;47.530;10.256;2024-01-16T00:17:01;1.50;99.90
33881;DHT22;20172;47.530;10.256;2024-01-16T00:19:27;1.50;99.90
33881;DHT22;20172;47.530;10.256;2024-01-16T00:21:53;1.60;99.90
33881;DHT22;20172;47.530;10.256;2024-01-16T00:24:18;1.60;99.90
33881;DHT22;20172;47.530;10.256;2024-01-16T00:26:44;1.60;99.90
33881;DHT22;20172;47.530;10.256;2024-01-16T00:29:09;1.60;99.90
33881;DHT22;20172;47.530;10.256;2024-01-16T00:31:37;1.60;99.90
33881;DHT22;20172;47.530;10.256;2024-01-16T00:34:03;1.60;99.90
33881;DHT22;20172;47.530;10.256;2024-01-16T00:36:28;1.60;99.90
33881;DHT22;20172;47.530;10.256;2024-01-16T00:38:54;1.60;99.90
33881;DHT22;20172;47.530;10.256;2024-01-16T00:41:22;1.60;99.90
33881;DHT22;20172;47.530;10.256;2024-01-16T00:43:47;1.60;99.90
33881;DHT22;20172;47.530;10.256;2024-01-16T00:46:13;1.60;99.90
33881;DHT22;20172;47.530;10.256;2024-01-16T00:48:39;1.60;99.90
33881;DHT22;20172;47.530;10.256;2024-01-16T00:51:04;1.60;99.90
33881;DHT22;20172;47.530;10.256;2024-01-16T00:53:30;1.60;99.90
33881;DHT22;20172;47.530;10.256;2024-01-16T00:55:55;1.70;99.90
33881;DHT22;20172;47.530;10.256;2024-01-16T00:58:21;1.70;99.90
33881;DHT22;20172;47.530;10.256;2024-01-16T01:00:47;1.70;99.90
33881;DHT22;20172;47.530;10.256;2024-01-16T01:03:13;1.70;99.90
33881;DHT22;20172;47.530;10.256;2024-01-16T01:05:38;1.70;99.90
33881;DHT22;20172;47.530;10.256;2024-01-16T01:08:04;1.70;99.90
33881;DHT22;20172;47.530;10.256;2024-01-16T01:10:29;1.70;99.90
33881;DHT22;20172;47.530;10.256;2024-01-16T01:12:55;1.60;99.90
33881;DHT22;20172;47.530;10.256;2024-01-16T01:15:21;1.70;99.90
33881;DHT22;20172;47.530;10.256;2024-01-16T01:17:50;1.70;99.90
33881;DHT22;20172;47.530;10.256;2024-01-16T01:20:17;1.70;99.90
33881;DHT22;20172;47.530;10.256;2024-01-16T01:22:43;1.70;99.90
33881;DHT22;20172;47.530;10.256;2024-01-16T01:25:09;1.60;99.90
33881;DHT22;20172;47.530;10.256;2024-01-16T01:27:36;1.60;99.90
33881;DHT22;20172;47.530;10.256;2024-01-16T01:30:04;1.60;99.90
33881;DHT22;20172;47.530;10.256;2024-01-16T01:32:30;1.60;99.90
33881;DHT22;20172;47.530;10.256;2024-01-16T01:34:55;1.60;99.90
33881;DHT22;20172;47.530;10.256;2024-01-16T01:37:21;1.60;99.90
33881;DHT22;20172;47.530;10.256;2024-01-16T01:39:46;1.60;99.90
33881;DHT22;20172;47.530;10.256;2024-01-16T01:42:12;1.50;99.90
33881;DHT22;20172;47.530;10.256;2024-01-16T01:44:37;1.50;99.90
33881;DHT22;20172;47.530;10.256;2024-01-16T01:47:03;1.50;99.90
33881;DHT22;20172;47.530;10.256;2024-01-16T01:49:30;1.50;99.90
33881;DHT22;20172;47.530;10.256;2024-01-16T01:51:55;1.60;99.90
33881;DHT22;20172;47.530;10.256;2024-01-16T01:54:21;1.50;99.90
33881;DHT22;20172;47.530;10.256;2024-01-16T01:56:48;1.50;99.90
33881;DHT22;20172;47.530;10.256;2024-01-16T01:59:14;1.50;99.90
33881;DHT22;20172;47.530;10.256;2024-01-16T02:01:42;1.50;99.90
33881;DHT22;20172;47.530;10.256;2024-01-16T02:04:08;1.50;99.90
33881;DHT22;20172;47.530;10.256;2024-01-16T02:06:33;1.50;99.90
33881;DHT22;20172;47.530;10.256;2024-01-16T02:08:59;1.50;99.90
33881;DHT22;20172;47.530;10.256;2024-01-16T02:11:25;1.50;99.90
33881;DHT22;20172;47.530;10.256;2024-01-16T02:13:50;1.50;99.90
33881;DHT22;20172;47.530;10.256;2024-01-16T02:16:22;1.50;99.90
33881;DHT22;20172;47.530;10.256;2024-01-16T02:18:49;1.50;99.90
33881;DHT22;20172;47.530;10.256;2024-01-16T02:21:15;1.50;99.90
33881;DHT22;20172;47.530;10.256;2024-01-16T02:23:42;1.50;99.90
33881;DHT22;20172;47.530;10.256;2024-01-16T02:26:08;1.40;99.90
33881;DHT22;20172;47.530;10.256;2024-01-16T02:28:33;1.30;99.90
33881;DHT22;20172;47.530;10.256;2024-01-16T02:30:59;1.30;99.90
33881;DHT22;20172;47.530;10.256;2024-01-16T02:33:24;1.30;99.90
33881;DHT22;20172;47.530;10.256;2024-01-16T02:35:50;1.20;99.90
33881;DHT22;20172;47.530;10.256;2024-01-16T02:38:15;1.20;99.90
33881;DHT22;20172;47.530;10.256;2024-01-16T02:40:41;1.20;99.90
33881;DHT22;20172;47.530;10.256;2024-01-16T02:43:06;1.30;99.90
33881;DHT22;20172;47.530;10.256;2024-01-16T02:45:33;1.30;99.90
33881;DHT22;20172;47.530;10.256;2024-01-16T02:47:58;1.20;99.90
33881;DHT22;20172;47.530;10.256;2024-01-16T02:50:28;1.30;99.90
33881;DHT22;20172;47.530;10.256;2024-01-16T02:52:54;1.20;99.90
33881;DHT22;20172;47.530;10.256;2024-01-16T02:55:19;1.20;99.90
33881;DHT22;20172;47.530;10.256;2024-01-16T02:57:45;1.20;99.90
33881;DHT22;20172;47.530;10.256;2024-01-16T03:00:10;1.20;99.90
33881;DHT22;20172;47.530;10.256;2024-01-16T03:02:36;1.20;99.90
33881;DHT22;20172;47.530;10.256;2024-01-16T03:05:02;1.20;99.90
33881;DHT22;20172;47.530;10.256;2024-01-16T03:07:29;1.20;99.90
33881;DHT22;20172;47.530;10.256;2024-01-16T03:09:54;1.10;99.90
33881;DHT22;20172;47.530;10.256;2024-01-16T03:12:20;1.10;99.90
33881;DHT22;20172;47.530;10.256;2024-01-16T03:14:45;1.10;99.90
33881;DHT22;20172;47.530;10.256;2024-01-16T03:17:11;1.10;99.90
33881;DHT22;20172;47.530;10.256;2024-01-16T03:19:36;1.00;99.90
33881;DHT22;20172;47.530;10.256;2024-01-16T03:22:02;0.90;99.90
33881;DHT22;20172;47.530;10.256;2024-01-16T03:24:29;0.80;99.90
33881;DHT22;20172;47.530;10.256;2024-01-16T03:26:54;0.80;99.90
33881;DHT22;20172;47.530;10.256;2024-01-16T03:29:20;0.90;99.90
33881;DHT22;20172;47.530;10.256;2024-01-16T03:31:46;0.90;99.90
33881;DHT22;20172;47.530;10.256;2024-01-16T03:34:11;1.00;99.90
33881;DHT22;20172;47.530;10.256;2024-01-16T03:36:37;1.00;99.90
33881;DHT22;20172;47.530;10.256;2024-01-16T03:39:03;1.10;99.90
33881;DHT22;20172;47.530;10.256;2024-01-16T03:41:28;1.10;99.90
33881;DHT22;20172;47.530;10.256;2024-01-16T03:43:54;1.10;99.90
33881;DHT22;20172;47.530;10.256;2024-01-16T03:46:22;1.10;99.90
33881;DHT22;20172;47.530;10.256;2024-01-16T03:48:48;1.20;99.90
33881;DHT22;20172;47.530;10.256;2024-01-16T03:51:13;1.20;99.90
33881;DHT22;20172;47.530;10.256;2024-01-16T03:53:43;1.20;99.90
33881;DHT22;20172;47.530;10.256;2024-01-16T03:56:08;1.30;99.90
33881;DHT22;20172;47.530;10.256;2024-01-16T03:58:34;1.20;99.90
33881;DHT22;20172;47.530;10.256;2024-01-16T04:00:59;1.30;99.90
33881;DHT22;20172;47.530;10.256;2024-01-16T04:03:25;1.30;99.90
33881;DHT22;20172;47.530;10.256;2024-01-16T04:05:50;1.40;99.90
33881;DHT22;20172;47.530;10.256;2024-01-16T04:08:16;1.30;99.90
33881;DHT22;20172;47.530;10.256;2024-01-16T04:10:41;1.30;99.90
33881;DHT22;20172;47.530;10.256;2024-01-16T04:13:07;1.20;99.90
33881;DHT22;20172;47.530;10.256;2024-01-16T04:15:33;1.20;99.90
33881;DHT22;20172;47.530;10.256;2024-01-16T04:17:59;1.20;99.90
33881;DHT22;20172;47.530;10.256;2024-01-16T04:20:24;1.20;99.90
33881;DHT22;20172;47.530;10.256;2024-01-16T04:22:50;1.20;99.90
33881;DHT22;20172;47.530;10.256;2024-01-16T04:25:15;1.20;99.90
33881;DHT22;20172;47.530;10.256;2024-01-16T04:27:41;1.20;99.90
33881;DHT22;20172;47.530;10.256;2024-01-16T04:30:07;1.10;99.90
33881;DHT22;20172;47.530;10.256;2024-01-16T04:32:33;1.10;99.90
33881;DHT22;20172;47.530;10.256;2024-01-16T04:34:58;1.10;99.90
33881;DHT22;20172;47.530;10.256;2024-01-16T04:37:24;1.00;99.90
33881;DHT22;20172;47.530;10.256;2024-01-16T04:39:49;1.00;99.90
33881;DHT22;20172;47.530;10.256;2024-01-16T04:42:15;1.00;99.90
33881;DHT22;20172;47.530;10.256;2024-01-16T04:44:43;1.00;99.90
33881;DHT22;20172;47.530;10.256;2024-01-16T04:47:08;1.00;99.90
33881;DHT22;20172;47.530;10.256;2024-01-16T04:49:34;0.90;99.90
33881;DHT22;20172;47.530;10.256;2024-01-16T04:51:59;0.90;99.90
33881;DHT22;20172;47.530;10.256;2024-01-16T04:54:25;0.90;99.90
33881;DHT22;20172;47.530;10.256;2024-01-16T04:56:50;0.90;99.90
33881;DHT22;20172;47.530;10.256;2024-01-16T04:59:16;0.90;99.90
33881;DHT22;20172;47.530;10.256;2024-01-16T05:01:44;0.90;99.90
33881;DHT22;20172;47.530;10.256;2024-01-16T05:04:11;0.80;99.90
33881;DHT22;20172;47.530;10.256;2024-01-16T05:06:36;0.70;99.90
33881;DHT22;20172;47.530;10.256;2024-01-16T05:09:02;0.70;99.90
33881;DHT22;20172;47.530;10.256;2024-01-16T05:11:28;0.60;99.90
33881;DHT22;20172;47.530;10.256;2024-01-16T05:13:54;0.50;99.90
33881;DHT22;20172;47.530;10.256;2024-01-16T05:16:26;0.50;99.90
33881;DHT22;20172;47.530;10.256;2024-01-16T05:18:52;0.40;99.90
33881;DHT22;20172;47.530;10.256;2024-01-16T05:21:18;0.40;99.90
33881;DHT22;20172;47.530;10.256;2024-01-16T05:23:43;0.30;99.90
33881;DHT22;20172;47.530;10.256;2024-01-16T05:26:09;0.20;99.90
33881;DHT22;20172;47.530;10.256;2024-01-16T05:28:34;0.10;99.90
33881;DHT22;20172;47.530;10.256;2024-01-16T05:31:00;0.10;99.90
33881;DHT22;20172;47.530;10.256;2024-01-16T05:33:25;0.10;99.90
33881;DHT22;20172;47.530;10.256;2024-01-16T05:35:51;0.10;99.90
33881;DHT22;20172;47.530;10.256;2024-01-16T05:38:16;0.00;99.90
33881;DHT22;20172;47.530;10.256;2024-01-16T05:40:42;0.00;99.90
33881;DHT22;20172;47.530;10.256;2024-01-16T05:43:07;-0.10;99.90
33881;DHT22;20172;47.530;10.256;2024-01-16T05:45:33;-0.20;99.90
33881;DHT22;20172;47.530;10.256;2024-01-16T05:47:58;-0.30;99.90
33881;DHT22;20172;47.530;10.256;2024-01-16T05:50:24;-0.40;99.90
33881;DHT22;20172;47.530;10.256;2024-01-16T05:52:49;-0.40;99.90
33881;DHT22;20172;47.530;10.256;2024-01-16T05:55:15;-0.50;99.90
33881;DHT22;20172;47.530;10.256;2024-01-16T05:57:40;-0.60;99.90
33881;DHT22;20172;47.530;10.256;2024-01-16T06:00:09;-0.60;99.90
33881;DHT22;20172;47.530;10.256;2024-01-16T06:02:35;-0.70;99.90
33881;DHT22;20172;47.530;10.256;2024-01-16T06:05:01;-0.80;99.90
33881;DHT22;20172;47.530;10.256;2024-01-16T06:07:28;-1.00;99.90
33881;DHT22;20172;47.530;10.256;2024-01-16T06:09:53;-1.00;99.90
33881;DHT22;20172;47.530;10.256;2024-01-16T06:12:19;-1.10;99.90
33881;DHT22;20172;47.530;10.256;2024-01-16T06:14:44;-1.10;99.90
33881;DHT22;20172;47.530;10.256;2024-01-16T06:17:10;-1.10;99.90
33881;DHT22;20172;47.530;10.256;2024-01-16T06:19:35;-1.30;99.90
33881;DHT22;20172;47.530;10.256;2024-01-16T06:22:01;-1.40;99.90
33881;DHT22;20172;47.530;10.256;2024-01-16T06:24:26;-1.50;99.90
33881;DHT22;20172;47.530;10.256;2024-01-16T06:26:52;-1.50;99.90
33881;DHT22;20172;47.530;10.256;2024-01-16T06:29:17;-1.60;99.90
33881;DHT22;20172;47.530;10.256;2024-01-16T06:31:43;-1.60;99.90
33881;DHT22;20172;47.530;10.256;2024-01-16T06:34:08;-1.70;99.90
33881;DHT22;20172;47.530;10.256;2024-01-16T06:36:34;-1.70;99.90
33881;DHT22;20172;47.530;10.256;2024-01-16T06:38:59;-1.60;99.90
33881;DHT22;20172;47.530;10.256;2024-01-16T06:41:25;-1.60;99.90
33881;DHT22;20172;47.530;10.256;2024-01-16T06:43:50;-1.70;99.90
33881;DHT22;20172;47.530;10.256;2024-01-16T06:46:16;-1.70;99.90
33881;DHT22;20172;47.530;10.256;2024-01-16T06:48:41;-1.80;99.90
33881;DHT22;20172;47.530;10.256;2024-01-16T06:51:06;-2.00;99.90
33881;DHT22;20172;47.530;10.256;2024-01-16T06:53:33;-2.10;99.90
33881;DHT22;20172;47.530;10.256;2024-01-16T06:55:58;-2.20;99.90
33881;DHT22;20172;47.530;10.256;2024-01-16T06:58:24;-2.20;99.90
33881;DHT22;20172;47.530;10.256;2024-01-16T07:00:49;-2.20;99.90
33881;DHT22;20172;47.530;10.256;2024-01-16T07:03:15;-2.30;99.90
33881;DHT22;20172;47.530;10.256;2024-01-16T07:05:42;-2.30;99.90
33881;DHT22;20172;47.530;10.256;2024-01-16T07:08:08;-2.30;99.90
33881;DHT22;20172;47.530;10.256;2024-01-16T07:10:34;-2.30;99.90
33881;DHT22;20172;47.530;10.256;2024-01-16T07:12:59;-2.40;99.90
33881;DHT22;20172;47.530;10.256;2024-01-16T07:15:25;-2.50;99.90
33881;DHT22;20172;47.530;10.256;2024-01-16T07:17:51;-2.60;99.90
33881;DHT22;20172;47.530;10.256;2024-01-16T07:20:16;-2.50;99.90
33881;DHT22;20172;47.530;10.256;2024-01-16T07:22:42;-2.40;99.90
33881;DHT22;20172;47.530;10.256;2024-01-16T07:25:07;-2.40;99.90
33881;DHT22;20172;47.530;10.256;2024-01-16T07:27:33;-2.50;99.90
33881;DHT22;20172;47.530;10.256;2024-01-16T07:29:59;-2.40;99.90
33881;DHT22;20172;47.530;10.256;2024-01-16T07:32:25;-2.40;99.90
33881;DHT22;20172;47.530;10.256;2024-01-16T07:34:50;-2.30;99.90
33881;DHT22;20172;47.530;10.256;2024-01-16T07:37:20;-2.30;99.90
33881;DHT22;20172;47.530;10.256;2024-01-16T07:39:46;-2.30;99.90
33881;DHT22;20172;47.530;10.256;2024-01-16T07:42:12;-2.40;99.90
33881;DHT22;20172;47.530;10.256;2024-01-16T07:44:38;-2.40;99.90
33881;DHT22;20172;47.530;10.256;2024-01-16T07:47:04;-2.50;99.90
33881;DHT22;20172;47.530;10.256;2024-01-16T07:49:30;-2.50;99.90
33881;DHT22;20172;47.530;10.256;2024-01-16T07:51:55;-2.50;99.90
33881;DHT22;20172;47.530;10.256;2024-01-16T07:54:21;-2.50;99.90
33881;DHT22;20172;47.530;10.256;2024-01-16T07:56:48;-2.50;99.90
33881;DHT22;20172;47.530;10.256;2024-01-16T07:59:14;-2.40;99.90
33881;DHT22;20172;47.530;10.256;2024-01-16T08:01:39;-2.30;99.90
33881;DHT22;20172;47.530;10.256;2024-01-16T08:04:05;-2.20;99.90
33881;DHT22;20172;47.530;10.256;2024-01-16T08:06:31;-2.30;99.90
33881;DHT22;20172;47.530;10.256;2024-01-16T08:08:56;-2.20;99.90
33881;DHT22;20172;47.530;10.256;2024-01-16T08:11:22;-2.20;99.90
33881;DHT22;20172;47.530;10.256;2024-01-16T08:13:50;-2.20;99.90
33881;DHT22;20172;47.530;10.256;2024-01-16T08:16:16;-2.10;99.90
33881;DHT22;20172;47.530;10.256;2024-01-16T08:18:41;-2.10;99.90
33881;DHT22;20172;47.530;10.256;2024-01-16T08:21:07;-2.00;99.90
33881;DHT22;20172;47.530;10.256;2024-01-16T08:23:33;-2.00;99.90
33881;DHT22;20172;47.530;10.256;2024-01-16T08:25:59;-1.90;99.90
33881;DHT22;20172;47.530;10.256;2024-01-16T08:28:24;-1.90;99.90
33881;DHT22;20172;47.530;10.256;2024-01-16T08:30:51;-2.00;99.90
33881;DHT22;20172;47.530;10.256;2024-01-16T08:33:16;-2.00;99.90
33881;DHT22;20172;47.530;10.256;2024-01-16T08:35:42;-1.70;99.90
33881;DHT22;20172;47.530;10.256;2024-01-16T08:38:07;-0.80;99.90
33881;DHT22;20172;47.530;10.256;2024-01-16T08:40:33;0.80;99.90
33881;DHT22;20172;47.530;10.256;2024-01-16T08:42:58;2.30;99.90
33881;DHT22;20172;47.530;10.256;2024-01-16T08:45:24;3.70;99.90
33881;DHT22;20172;47.530;10.256;2024-01-16T08:47:51;5.30;99.90
33881;DHT22;20172;47.530;10.256;2024-01-16T08:50:16;6.50;99.20
33881;DHT22;20172;47.530;10.256;2024-01-16T08:52:42;7.50;97.00
33881;DHT22;20172;47.530;10.256;2024-01-16T08:55:08;8.30;94.40
33881;DHT22;20172;47.530;10.256;2024-01-16T08:57:34;8.70;91.90
33881;DHT22;20172;47.530;10.256;2024-01-16T09:00:00;8.90;90.40
33881;DHT22;20172;47.530;10.256;2024-01-16T09:02:25;9.60;87.80
33881;DHT22;20172;47.530;10.256;2024-01-16T09:04:54;9.60;82.50
33881;DHT22;20172;47.530;10.256;2024-01-16T09:07:20;9.40;79.40
33881;DHT22;20172;47.530;10.256;2024-01-16T09:09:45;9.30;79.20
33881;DHT22;20172;47.530;10.256;2024-01-16T09:12:11;9.60;78.80
33881;DHT22;20172;47.530;10.256;2024-01-16T09:14:37;10.10;77.10
33881;DHT22;20172;47.530;10.256;2024-01-16T09:17:03;11.10;75.40
33881;DHT22;20172;47.530;10.256;2024-01-16T09:19:29;11.70;72.50
33881;DHT22;20172;47.530;10.256;2024-01-16T09:21:55;12.20;71.00
33881;DHT22;20172;47.530;10.256;2024-01-16T09:24:20;12.90;69.50
33881;DHT22;20172;47.530;10.256;2024-01-16T09:26:46;13.40;65.70
33881;DHT22;20172;47.530;10.256;2024-01-16T09:29:12;14.00;63.00
33881;DHT22;20172;47.530;10.256;2024-01-16T09:31:37;14.30;60.20
33881;DHT22;20172;47.530;10.256;2024-01-16T09:34:04;14.00;57.70
33881;DHT22;20172;47.530;10.256;2024-01-16T09:36:29;13.70;57.20
33881;DHT22;20172;47.530;10.256;2024-01-16T09:38:55;13.70;57.20
33881;DHT22;20172;47.530;10.256;2024-01-16T09:41:20;14.00;56.30
33881;DHT22;20172;47.530;10.256;2024-01-16T09:43:46;14.50;55.90
33881;DHT22;20172;47.530;10.256;2024-01-16T09:46:12;14.90;54.60
33881;DHT22;20172;47.530;10.256;2024-01-16T09:48:39;15.00;54.10
33881;DHT22;20172;47.530;10.256;2024-01-16T09:51:05;14.90;53.40
33881;DHT22;20172;47.530;10.256;2024-01-16T09:53:31;15.00;53.10
33881;DHT22;20172;47.530;10.256;2024-01-16T09:55:57;15.20;52.70
33881;DHT22;20172;47.530;10.256;2024-01-16T09:58:25;15.50;52.00
33881;DHT22;20172;47.530;10.256;2024-01-16T10:00:50;15.60;51.10
33881;DHT22;20172;47.530;10.256;2024-01-16T10:03:16;15.80;51.00
33881;DHT22;20172;47.530;10.256;2024-01-16T10:05:42;16.10;50.30
33881;DHT22;20172;47.530;10.256;2024-01-16T10:08:08;16.60;50.20
33881;DHT22;20172;47.530;10.256;2024-01-16T10:10:34;17.00;49.10
33881;DHT22;20172;47.530;10.256;2024-01-16T10:13:00;17.60;48.80
33881;DHT22;20172;47.530;10.256;2024-01-16T10:15:25;18.70;47.70
33881;DHT22;20172;47.530;10.256;2024-01-16T10:17:51;19.00;46.90
33881;DHT22;20172;47.530;10.256;2024-01-16T10:20:31;18.20;46.30
33881;DHT22;20172;47.530;10.256;2024-01-16T10:22:57;16.80;46.40
33881;DHT22;20172;47.530;10.256;2024-01-16T10:25:24;15.90;47.10
33881;DHT22;20172;47.530;10.256;2024-01-16T10:27:49;15.30;47.00
33881;DHT22;20172;47.530;10.256;2024-01-16T10:30:27;15.30;47.00
33881;DHT22;20172;47.530;10.256;2024-01-16T10:32:53;16.20;47.40
33881;DHT22;20172;47.530;10.256;2024-01-16T10:35:18;17.40;46.40
33881;DHT22;20172;47.530;10.256;2024-01-16T10:37:45;18.40;45.80
33881;DHT22;20172;47.530;10.256;2024-01-16T10:40:15;19.50;45.10
33881;DHT22;20172;47.530;10.256;2024-01-16T10:42:40;20.30;43.40
33881;DHT22;20172;47.530;10.256;2024-01-16T10:45:06;20.80;42.10
33881;DHT22;20172;47.530;10.256;2024-01-16T10:47:32;21.00;42.00
33881;DHT22;20172;47.530;10.256;2024-01-16T10:50:03;21.40;41.70
33881;DHT22;20172;47.530;10.256;2024-01-16T10:52:28;22.10;41.10
33881;DHT22;20172;47.530;10.256;2024-01-16T10:54:56;22.60;40.30
33881;DHT22;20172;47.530;10.256;2024-01-16T10:57:22;23.40;40.00
33881;DHT22;20172;47.530;10.256;2024-01-16T11:00:05;23.60;39.40
33881;DHT22;20172;47.530;10.256;2024-01-16T11:02:35;24.30;39.00
33881;DHT22;20172;47.530;10.256;2024-01-16T11:05:03;25.20;38.30
33881;DHT22;20172;47.530;10.256;2024-01-16T11:07:31;25.70;37.90
33881;DHT22;20172;47.530;10.256;2024-01-16T11:09:58;25.90;37.20
33881;DHT22;20172;47.530;10.256;2024-01-16T11:12:23;26.10;37.20
33881;DHT22;20172;47.530;10.256;2024-01-16T11:14:51;26.60;36.90
33881;DHT22;20172;47.530;10.256;2024-01-16T11:17:18;26.70;36.30
33881;DHT22;20172;47.530;10.256;2024-01-16T11:19:46;26.40;36.20
33881;DHT22;20172;47.530;10.256;2024-01-16T11:22:14;25.80;35.80
33881;DHT22;20172;47.530;10.256;2024-01-16T11:24:41;24.70;36.40
33881;DHT22;20172;47.530;10.256;2024-01-16T11:27:07;24.00;36.70
33881;DHT22;20172;47.530;10.256;2024-01-16T11:29:34;23.40;36.40
33881;DHT22;20172;47.530;10.256;2024-01-16T11:32:00;22.50;37.00
33881;DHT22;20172;47.530;10.256;2024-01-16T11:37:16;22.20;36.90
33881;DHT22;20172;47.530;10.256;2024-01-16T11:39:49;21.30;37.00
33881;DHT22;20172;47.530;10.256;2024-01-16T11:42:25;20.60;37.50
33881;DHT22;20172;47.530;10.256;2024-01-16T11:44:54;20.50;37.90
33881;DHT22;20172;47.530;10.256;2024-01-16T11:47:20;20.20;38.20
33881;DHT22;20172;47.530;10.256;2024-01-16T11:49:50;20.00;38.10
33881;DHT22;20172;47.530;10.256;2024-01-16T11:52:38;19.80;37.80
33881;DHT22;20172;47.530;10.256;2024-01-16T11:55:01;19.20;38.00
33881;DHT22;20172;47.530;10.256;2024-01-16T12:02:48;19.40;38.50
33881;DHT22;20172;47.530;10.256;2024-01-16T12:05:14;19.20;38.50
33881;DHT22;20172;47.530;10.256;2024-01-16T12:07:46;18.80;38.30
33881;DHT22;20172;47.530;10.256;2024-01-16T12:10:15;18.00;38.40
33881;DHT22;20172;47.530;10.256;2024-01-16T12:12:41;16.80;39.20
33881;DHT22;20172;47.530;10.256;2024-01-16T12:15:06;15.70;40.10
33881;DHT22;20172;47.530;10.256;2024-01-16T12:17:32;14.80;41.10
33881;DHT22;20172;47.530;10.256;2024-01-16T12:19:57;14.20;41.70
33881;DHT22;20172;47.530;10.256;2024-01-16T12:22:23;13.70;42.30
33881;DHT22;20172;47.530;10.256;2024-01-16T12:24:48;13.20;42.80
33881;DHT22;20172;47.530;10.256;2024-01-16T12:27:14;12.70;43.30
33881;DHT22;20172;47.530;10.256;2024-01-16T12:29:43;12.30;43.90
33881;DHT22;20172;47.530;10.256;2024-01-16T12:34:38;12.20;45.20
33881;DHT22;20172;47.530;10.256;2024-01-16T12:37:09;12.60;45.80
33881;DHT22;20172;47.530;10.256;2024-01-16T12:39:35;13.40;45.20
33881;DHT22;20172;47.530;10.256;2024-01-16T12:42:01;14.80;44.50
33881;DHT22;20172;47.530;10.256;2024-01-16T12:44:27;17.00;43.50
33881;DHT22;20172;47.530;10.256;2024-01-16T12:46:56;19.20;41.40
33881;DHT22;20172;47.530;10.256;2024-01-16T12:49:22;21.20;40.00
33881;DHT22;20172;47.530;10.256;2024-01-16T12:51:48;22.90;38.80
33881;DHT22;20172;47.530;10.256;2024-01-16T12:54:15;24.10;37.90
33881;DHT22;20172;47.530;10.256;2024-01-16T12:56:41;25.30;37.00
33881;DHT22;20172;47.530;10.256;2024-01-16T12:59:10;26.10;35.70
33881;DHT22;20172;47.530;10.256;2024-01-16T13:01:38;26.50;34.80
33881;DHT22;20172;47.530;10.256;2024-01-16T13:04:04;26.90;34.30
33881;DHT22;20172;47.530;10.256;2024-01-16T13:06:32;26.90;34.20
33881;DHT22;20172;47.530;10.256;2024-01-16T13:09:05;27.30;33.60
33881;DHT22;20172;47.530;10.256;2024-01-16T13:11:54;27.10;33.60
33881;DHT22;20172;47.530;10.256;2024-01-16T13:14:23;26.90;33.60
33881;DHT22;20172;47.530;10.256;2024-01-16T13:16:49;26.80;33.40
33881;DHT22;20172;47.530;10.256;2024-01-16T13:19:16;26.30;33.10
33881;DHT22;20172;47.530;10.256;2024-01-16T13:21:41;24.80;33.20
33881;DHT22;20172;47.530;10.256;2024-01-16T13:24:07;21.90;34.30
33881;DHT22;20172;47.530;10.256;2024-01-16T13:26:33;19.20;36.30
33881;DHT22;20172;47.530;10.256;2024-01-16T13:28:59;17.00;37.50
33881;DHT22;20172;47.530;10.256;2024-01-16T13:31:25;15.60;39.40
33881;DHT22;20172;47.530;10.256;2024-01-16T13:33:51;14.40;40.60
33881;DHT22;20172;47.530;10.256;2024-01-16T13:36:16;13.60;41.70
33881;DHT22;20172;47.530;10.256;2024-01-16T13:38:42;12.90;42.60
33881;DHT22;20172;47.530;10.256;2024-01-16T13:41:07;12.20;43.40
33881;DHT22;20172;47.530;10.256;2024-01-16T13:43:33;11.60;44.20
33881;DHT22;20172;47.530;10.256;2024-01-16T13:45:58;11.00;44.80
33881;DHT22;20172;47.530;10.256;2024-01-16T13:48:24;10.30;45.70
33881;DHT22;20172;47.530;10.256;2024-01-16T13:50:51;9.50;47.50
33881;DHT22;20172;47.530;10.256;2024-01-16T13:53:16;8.80;49.00
33881;DHT22;20172;47.530;10.256;2024-01-16T13:55:42;8.00;50.40
33881;DHT22;20172;47.530;10.256;2024-01-16T13:58:08;7.50;51.50
33881;DHT22;20172;47.530;10.256;2024-01-16T14:00:33;6.90;52.30
33881;DHT22;20172;47.530;10.256;2024-01-16T14:02:59;6.60;53.20
33881;DHT22;20172;47.530;10.256;2024-01-16T14:05:28;6.30;53.90
33881;DHT22;20172;47.530;10.256;2024-01-16T14:07:54;6.00;54.60
33881;DHT22;20172;47.530;10.256;2024-01-16T14:10:20;5.70;55.10
33881;DHT22;20172;47.530;10.256;2024-01-16T14:12:46;5.50;56.00
33881;DHT22;20172;47.530;10.256;2024-01-16T14:15:13;5.30;56.50
33881;DHT22;20172;47.530;10.256;2024-01-16T14:17:42;4.90;56.80
33881;DHT22;20172;47.530;10.256;2024-01-16T14:20:09;4.80;57.50
33881;DHT22;20172;47.530;10.256;2024-01-16T14:22:39;4.60;58.00
33881;DHT22;20172;47.530;10.256;2024-01-16T14:25:08;4.50;58.50
33881;DHT22;20172;47.530;10.256;2024-01-16T14:27:40;4.30;59.10
33881;DHT22;20172;47.530;10.256;2024-01-16T14:30:07;4.00;59.60
33881;DHT22;20172;47.530;10.256;2024-01-16T14:32:36;3.80;60.00
33881;DHT22;20172;47.530;10.256;2024-01-16T14:35:03;3.60;60.90
33881;DHT22;20172;47.530;10.256;2024-01-16T14:37:30;3.30;62.20
33881;DHT22;20172;47.530;10.256;2024-01-16T14:39:55;3.10;62.90
33881;DHT22;20172;47.530;10.256;2024-01-16T14:42:22;3.00;63.20
33881;DHT22;20172;47.530;10.256;2024-01-16T14:44:47;2.80;63.80
33881;DHT22;20172;47.530;10.256;2024-01-16T14:47:13;2.60;64.30
33881;DHT22;20172;47.530;10.256;2024-01-16T14:49:39;2.50;64.80
33881;DHT22;20172;47.530;10.256;2024-01-16T14:52:04;2.30;65.40
33881;DHT22;20172;47.530;10.256;2024-01-16T14:54:33;2.20;66.10
33881;DHT22;20172;47.530;10.256;2024-01-16T14:56:58;2.20;66.90
33881;DHT22;20172;47.530;10.256;2024-01-16T14:59:24;2.10;67.70
33881;DHT22;20172;47.530;10.256;2024-01-16T15:01:49;2.00;68.00
33881;DHT22;20172;47.530;10.256;2024-01-16T15:04:17;2.00;67.80
33881;DHT22;20172;47.530;10.256;2024-01-16T15:06:42;1.80;67.40
33881;DHT22;20172;47.530;10.256;2024-01-16T15:09:08;1.80;67.70
33881;DHT22;20172;47.530;10.256;2024-01-16T15:11:40;1.70;68.30
33881;DHT22;20172;47.530;10.256;2024-01-16T15:14:05;1.70;68.80
33881;DHT22;20172;47.530;10.256;2024-01-16T15:16:34;1.60;69.30
33881;DHT22;20172;47.530;10.256;2024-01-16T15:18:59;1.50;69.50
33881;DHT22;20172;47.530;10.256;2024-01-16T15:21:25;1.40;70.40
33881;DHT22;20172;47.530;10.256;2024-01-16T15:23:50;1.30;71.10
33881;DHT22;20172;47.530;10.256;2024-01-16T15:26:16;1.20;71.30